createdAt,value
2017-05-20T00:00:08.350Z,14.62
2017-05-20T00:00:34.446Z,14.66
2017-05-20T00:01:00.554Z,14.7
2017-05-20T00:01:26.649Z,14.62
2017-05-20T00:01:52.755Z,14.77
2017-05-20T00:02:18.844Z,14.73
2017-05-20T00:02:44.972Z,14.7
2017-05-20T00:03:11.077Z,14.77
2017-05-20T00:03:37.274Z,14.69
2017-05-20T00:04:03.395Z,14.73
2017-05-20T00:04:29.556Z,14.81
2017-05-20T00:04:55.697Z,14.88
2017-05-20T00:05:22.153Z,14.85
2017-05-20T00:05:48.368Z,14.82
2017-05-20T00:06:14.513Z,14.73
2017-05-20T00:06:40.607Z,14.78
2017-05-20T00:07:06.741Z,14.68
2017-05-20T00:07:32.890Z,14.69
2017-05-20T00:07:59.119Z,14.88
2017-05-20T00:08:25.297Z,14.82
2017-05-20T00:08:51.416Z,14.79
2017-05-20T00:09:17.546Z,14.65
2017-05-20T00:09:43.644Z,14.7
2017-05-20T00:10:09.759Z,14.65
2017-05-20T00:10:35.867Z,14.81
2017-05-20T00:11:02.022Z,14.82
2017-05-20T00:11:28.115Z,14.85
2017-05-20T00:11:54.219Z,14.82
2017-05-20T00:12:20.361Z,14.81
2017-05-20T00:12:46.476Z,14.69
2017-05-20T00:13:12.579Z,14.77
2017-05-20T00:13:38.722Z,14.73
2017-05-20T00:14:04.853Z,14.82
2017-05-20T00:14:31.125Z,14.82
2017-05-20T00:14:57.232Z,14.72
2017-05-20T00:15:23.386Z,14.73
2017-05-20T00:15:49.592Z,14.73
2017-05-20T00:16:15.703Z,14.79
2017-05-20T00:16:41.824Z,14.77
2017-05-20T00:17:08.086Z,14.69
2017-05-20T00:17:34.177Z,14.62
2017-05-20T00:18:00.273Z,14.66
2017-05-20T00:18:26.370Z,14.66
2017-05-20T00:18:52.501Z,14.66
2017-05-20T00:19:18.645Z,14.73
2017-05-20T00:19:44.807Z,14.69
2017-05-20T00:20:10.964Z,14.66
2017-05-20T00:20:37.186Z,14.7
2017-05-20T00:21:03.297Z,14.65
2017-05-20T00:21:29.451Z,14.68
2017-05-20T00:21:55.669Z,14.72
2017-05-20T00:22:21.783Z,14.66
2017-05-20T00:22:47.944Z,14.62
2017-05-20T00:23:14.077Z,14.68
2017-05-20T00:23:40.192Z,14.73
2017-05-20T00:24:06.325Z,14.7
2017-05-20T00:24:32.470Z,14.68
2017-05-20T00:24:58.566Z,14.66
2017-05-20T00:25:24.672Z,14.68
2017-05-20T00:25:50.819Z,14.81
2017-05-20T00:26:16.937Z,14.92
2017-05-20T00:26:43.071Z,14.81
2017-05-20T00:27:09.194Z,14.84
2017-05-20T00:27:35.357Z,14.88
2017-05-20T00:28:01.490Z,14.86
2017-05-20T00:28:27.621Z,14.85
2017-05-20T00:28:53.783Z,14.81
2017-05-20T00:29:19.909Z,14.72
2017-05-20T00:29:46.055Z,14.73
2017-05-20T00:30:12.163Z,14.69
2017-05-20T00:30:38.259Z,14.69
2017-05-20T00:31:04.372Z,14.66
2017-05-20T00:31:30.499Z,14.68
2017-05-20T00:31:56.599Z,14.68
2017-05-20T00:32:22.690Z,14.66
2017-05-20T00:32:48.821Z,14.81
2017-05-20T00:33:14.982Z,14.72
2017-05-20T00:33:41.148Z,14.68
2017-05-20T00:34:07.273Z,14.66
2017-05-20T00:34:33.405Z,14.6
2017-05-20T00:34:59.521Z,14.62
2017-05-20T00:35:25.640Z,14.63
2017-05-20T00:35:51.877Z,14.53
2017-05-20T00:36:17.969Z,14.66
2017-05-20T00:36:44.060Z,14.6
2017-05-20T00:37:10.196Z,14.53
2017-05-20T00:37:36.302Z,14.55
2017-05-20T00:38:02.411Z,14.54
2017-05-20T00:38:28.570Z,14.51
2017-05-20T00:38:54.698Z,14.58
2017-05-20T00:39:20.810Z,14.5
2017-05-20T00:39:46.968Z,14.4
2017-05-20T00:40:13.130Z,14.47
2017-05-20T00:40:39.249Z,14.41
2017-05-20T00:41:05.372Z,14.32
2017-05-20T00:41:31.461Z,14.33
2017-05-20T00:41:57.598Z,14.33
2017-05-20T00:42:23.725Z,14.36
2017-05-20T00:42:49.842Z,14.35
2017-05-20T00:43:15.989Z,14.35
2017-05-20T00:43:42.180Z,14.32
2017-05-20T00:44:08.294Z,14.4
2017-05-20T00:44:34.420Z,14.33
2017-05-20T00:45:00.534Z,14.3
2017-05-20T00:45:26.624Z,14.45
2017-05-20T00:45:52.723Z,14.44
2017-05-20T00:46:18.877Z,14.33
2017-05-20T00:46:44.980Z,14.37
2017-05-20T00:47:11.114Z,14.28
2017-05-20T00:47:37.202Z,14.29
2017-05-20T00:48:03.328Z,14.28
2017-05-20T00:48:29.520Z,14.29
2017-05-20T00:48:55.610Z,14.32
2017-05-20T00:49:21.706Z,14.2
2017-05-20T00:49:47.838Z,14.23
2017-05-20T00:50:13.985Z,14.23
2017-05-20T00:50:40.077Z,14.26
2017-05-20T00:51:06.186Z,14.25
2017-05-20T00:51:32.311Z,14.26
2017-05-20T00:51:58.439Z,14.18
2017-05-20T00:52:24.555Z,14.26
2017-05-20T00:52:50.650Z,14.22
2017-05-20T00:53:16.785Z,14.15
2017-05-20T00:53:42.908Z,14.18
2017-05-20T00:54:09.047Z,14.1
2017-05-20T00:54:35.182Z,14.14
2017-05-20T00:55:01.305Z,14.15
2017-05-20T00:55:27.394Z,14.14
2017-05-20T00:55:53.530Z,14.15
2017-05-20T00:56:19.631Z,14.14
2017-05-20T00:56:45.725Z,14.14
2017-05-20T00:57:11.828Z,14.11
2017-05-20T00:57:37.941Z,14.1
2017-05-20T00:58:04.081Z,14.12
2017-05-20T00:58:30.227Z,14.12
2017-05-20T00:58:56.316Z,14.17
2017-05-20T00:59:22.423Z,14.17
2017-05-20T00:59:48.579Z,14.15
2017-05-20T01:00:14.693Z,14.2
2017-05-20T01:00:40.795Z,14.22
2017-05-20T01:01:06.901Z,14.12
2017-05-20T01:01:33.016Z,14.15
2017-05-20T01:01:59.168Z,14.08
2017-05-20T01:02:25.273Z,14.11
2017-05-20T01:02:51.416Z,14.1
2017-05-20T01:03:17.570Z,14.1
2017-05-20T01:03:43.684Z,14.12
2017-05-20T01:04:09.786Z,14.15
2017-05-20T01:04:35.922Z,14.15
2017-05-20T01:05:02.033Z,14.25
2017-05-20T01:05:28.156Z,14.17
2017-05-20T01:05:54.290Z,14.12
2017-05-20T01:06:20.404Z,14.12
2017-05-20T01:06:46.551Z,14.17
2017-05-20T01:07:12.655Z,14.22
2017-05-20T01:07:38.799Z,14.28
2017-05-20T01:08:04.911Z,14.23
2017-05-20T01:08:31.042Z,14.3
2017-05-20T01:08:57.195Z,14.29
2017-05-20T01:09:23.326Z,14.26
2017-05-20T01:09:49.465Z,14.29
2017-05-20T01:10:15.585Z,14.29
2017-05-20T01:10:41.692Z,14.3
2017-05-20T01:11:07.787Z,14.33
2017-05-20T01:11:33.878Z,14.3
2017-05-20T01:11:59.987Z,14.33
2017-05-20T01:12:26.083Z,14.36
2017-05-20T01:12:52.199Z,14.29
2017-05-20T01:13:18.305Z,14.32
2017-05-20T01:13:44.409Z,14.32
2017-05-20T01:14:10.511Z,14.33
2017-05-20T01:14:36.627Z,14.33
2017-05-20T01:15:02.742Z,14.44
2017-05-20T01:15:28.877Z,14.35
2017-05-20T01:15:54.975Z,14.33
2017-05-20T01:16:21.091Z,14.25
2017-05-20T01:16:47.222Z,14.11
2017-05-20T01:17:13.377Z,14.2
2017-05-20T01:17:39.467Z,14.28
2017-05-20T01:18:05.569Z,14.26
2017-05-20T01:18:31.677Z,14.23
2017-05-20T01:18:57.790Z,14.18
2017-05-20T01:19:23.891Z,14.3
2017-05-20T01:19:50.056Z,14.22
2017-05-20T01:20:16.145Z,14.23
2017-05-20T01:20:42.244Z,14.25
2017-05-20T01:21:08.350Z,14.25
2017-05-20T01:21:34.470Z,14.28
2017-05-20T01:22:00.560Z,14.3
2017-05-20T01:22:26.668Z,14.33
2017-05-20T01:22:52.790Z,14.29
2017-05-20T01:23:18.881Z,14.26
2017-05-20T01:23:45.016Z,14.33
2017-05-20T01:24:11.172Z,14.32
2017-05-20T01:24:37.288Z,14.32
2017-05-20T01:25:03.419Z,14.36
2017-05-20T01:25:29.537Z,14.36
2017-05-20T01:25:55.675Z,14.28
2017-05-20T01:26:21.771Z,14.28
2017-05-20T01:26:47.862Z,14.26
2017-05-20T01:27:13.996Z,14.23
2017-05-20T01:27:40.098Z,14.28
2017-05-20T01:28:06.214Z,14.2
2017-05-20T01:28:32.344Z,14.26
2017-05-20T01:28:58.477Z,14.29
2017-05-20T01:29:24.614Z,14.28
2017-05-20T01:29:50.766Z,14.23
2017-05-20T01:30:16.900Z,14.18
2017-05-20T01:30:42.990Z,14.26
2017-05-20T01:31:09.093Z,14.17
2017-05-20T01:31:35.182Z,14.25
2017-05-20T01:32:01.289Z,14.22
2017-05-20T01:32:27.425Z,14.22
2017-05-20T01:32:53.539Z,14.15
2017-05-20T01:33:19.688Z,14.14
2017-05-20T01:33:45.854Z,14.2
2017-05-20T01:34:12.105Z,14.25
2017-05-20T01:34:38.275Z,14.23
2017-05-20T01:35:04.464Z,14.23
2017-05-20T01:35:30.582Z,14.26
2017-05-20T01:35:56.674Z,14.26
2017-05-20T01:36:23.105Z,14.17
2017-05-20T01:36:49.252Z,14.23
2017-05-20T01:37:15.387Z,14.28
2017-05-20T01:37:41.476Z,14.22
2017-05-20T01:38:07.596Z,14.08
2017-05-20T01:38:33.730Z,14.15
2017-05-20T01:38:59.851Z,14.08
2017-05-20T01:39:25.968Z,14.15
2017-05-20T01:39:52.158Z,14.08
2017-05-20T01:40:18.255Z,14.14
2017-05-20T01:40:44.346Z,14.11
2017-05-20T01:41:10.502Z,14.07
2017-05-20T01:41:36.602Z,14
2017-05-20T01:42:02.702Z,14.03
2017-05-20T01:42:28.797Z,14.1
2017-05-20T01:42:54.939Z,14.11
2017-05-20T01:43:21.076Z,13.97
2017-05-20T01:43:47.194Z,14
2017-05-20T01:44:13.307Z,14.17
2017-05-20T01:44:39.466Z,14.14
2017-05-20T01:45:05.565Z,14.12
2017-05-20T01:45:31.655Z,14.11
2017-05-20T01:45:57.757Z,14.12
2017-05-20T01:46:23.864Z,14.1
2017-05-20T01:46:49.950Z,14.08
2017-05-20T01:47:16.052Z,14.14
2017-05-20T01:47:42.175Z,14.08
2017-05-20T01:48:08.365Z,14.11
2017-05-20T01:48:34.503Z,14.11
2017-05-20T01:49:00.611Z,14.08
2017-05-20T01:49:26.714Z,14.07
2017-05-20T01:49:52.851Z,14.08
2017-05-20T01:50:18.962Z,14.03
2017-05-20T01:50:45.062Z,14
2017-05-20T01:51:11.168Z,13.96
2017-05-20T01:51:37.282Z,13.99
2017-05-20T01:52:03.380Z,13.95
2017-05-20T01:52:29.569Z,13.89
2017-05-20T01:52:55.740Z,13.92
2017-05-20T01:53:21.845Z,13.89
2017-05-20T01:53:47.957Z,13.92
2017-05-20T01:54:14.085Z,13.92
2017-05-20T01:54:40.189Z,13.81
2017-05-20T01:55:06.332Z,13.86
2017-05-20T01:55:32.428Z,13.9
2017-05-20T01:55:58.559Z,13.74
2017-05-20T01:56:24.677Z,13.78
2017-05-20T01:56:50.792Z,13.77
2017-05-20T01:57:16.902Z,13.74
2017-05-20T01:57:43.027Z,13.78
2017-05-20T01:58:09.166Z,13.77
2017-05-20T01:58:35.295Z,13.79
2017-05-20T01:59:01.439Z,13.78
2017-05-20T01:59:27.573Z,13.65
2017-05-20T01:59:53.692Z,13.72
2017-05-20T02:00:19.832Z,13.74
2017-05-20T02:00:45.996Z,13.65
2017-05-20T02:01:12.091Z,13.63
2017-05-20T02:01:38.180Z,13.72
2017-05-20T02:02:04.315Z,13.72
2017-05-20T02:02:30.415Z,13.67
2017-05-20T02:02:56.555Z,13.72
2017-05-20T02:03:22.685Z,13.67
2017-05-20T02:03:48.872Z,13.68
2017-05-20T02:04:14.984Z,13.67
2017-05-20T02:04:41.106Z,13.71
2017-05-20T02:05:07.265Z,13.63
2017-05-20T02:05:33.354Z,13.7
2017-05-20T02:05:59.476Z,13.62
2017-05-20T02:06:25.580Z,13.65
2017-05-20T02:06:51.697Z,13.68
2017-05-20T02:07:17.786Z,13.65
2017-05-20T02:07:43.926Z,13.6
2017-05-20T02:08:10.052Z,13.52
2017-05-20T02:08:36.215Z,13.67
2017-05-20T02:09:02.321Z,13.6
2017-05-20T02:09:28.424Z,13.63
2017-05-20T02:09:54.523Z,13.67
2017-05-20T02:10:20.614Z,13.71
2017-05-20T02:10:46.705Z,13.71
2017-05-20T02:11:12.845Z,13.65
2017-05-20T02:11:38.941Z,13.65
2017-05-20T02:12:05.031Z,13.63
2017-05-20T02:12:31.165Z,13.63
2017-05-20T02:12:57.294Z,13.6
2017-05-20T02:13:23.383Z,13.62
2017-05-20T02:13:49.532Z,13.6
2017-05-20T02:14:15.669Z,13.7
2017-05-20T02:14:41.781Z,13.54
2017-05-20T02:15:07.905Z,13.62
2017-05-20T02:15:34.000Z,13.6
2017-05-20T02:16:00.105Z,13.62
2017-05-20T02:16:26.205Z,13.57
2017-05-20T02:16:52.445Z,13.6
2017-05-20T02:17:18.599Z,13.57
2017-05-20T02:17:44.733Z,13.54
2017-05-20T02:18:10.845Z,13.57
2017-05-20T02:18:36.944Z,13.71
2017-05-20T02:19:03.076Z,13.65
2017-05-20T02:19:29.221Z,13.72
2017-05-20T02:19:55.317Z,13.65
2017-05-20T02:20:21.450Z,13.63
2017-05-20T02:20:47.544Z,13.71
2017-05-20T02:21:13.650Z,13.68
2017-05-20T02:21:39.738Z,13.7
2017-05-20T02:22:05.834Z,13.6
2017-05-20T02:22:31.968Z,13.63
2017-05-20T02:22:58.110Z,13.7
2017-05-20T02:23:24.206Z,13.6
2017-05-20T02:23:50.339Z,13.67
2017-05-20T02:24:16.460Z,13.62
2017-05-20T02:24:42.651Z,13.59
2017-05-20T02:25:08.725Z,13.6
2017-05-20T02:25:34.846Z,13.6
2017-05-20T02:26:00.936Z,13.71
2017-05-20T02:26:27.065Z,13.72
2017-05-20T02:26:53.184Z,13.6
2017-05-20T02:27:19.318Z,13.65
2017-05-20T02:27:45.458Z,13.62
2017-05-20T02:28:11.596Z,13.62
2017-05-20T02:28:37.787Z,13.56
2017-05-20T02:29:03.884Z,13.6
2017-05-20T02:29:29.974Z,13.65
2017-05-20T02:29:56.132Z,13.6
2017-05-20T02:30:22.228Z,13.5
2017-05-20T02:30:48.319Z,13.59
2017-05-20T02:31:14.420Z,13.62
2017-05-20T02:31:40.527Z,13.62
2017-05-20T02:32:06.622Z,13.57
2017-05-20T02:32:32.720Z,13.46
2017-05-20T02:32:58.835Z,13.49
2017-05-20T02:33:25.024Z,13.57
2017-05-20T02:33:51.146Z,13.63
2017-05-20T02:34:17.265Z,13.49
2017-05-20T02:34:43.417Z,13.49
2017-05-20T02:35:09.549Z,13.49
2017-05-20T02:35:35.639Z,13.53
2017-05-20T02:36:01.737Z,13.59
2017-05-20T02:36:27.871Z,13.62
2017-05-20T02:36:54.309Z,13.57
2017-05-20T02:37:20.429Z,13.56
2017-05-20T02:37:46.581Z,13.56
2017-05-20T02:38:12.737Z,13.53
2017-05-20T02:38:38.841Z,13.5
2017-05-20T02:39:04.952Z,13.49
2017-05-20T02:39:31.051Z,13.52
2017-05-20T02:39:57.211Z,13.53
2017-05-20T02:40:23.298Z,13.47
2017-05-20T02:40:49.396Z,13.41
2017-05-20T02:41:15.556Z,13.37
2017-05-20T02:41:41.648Z,13.42
2017-05-20T02:42:07.759Z,13.28
2017-05-20T02:42:33.897Z,13.27
2017-05-20T02:43:00.012Z,13.28
2017-05-20T02:43:26.168Z,13.23
2017-05-20T02:43:52.338Z,13.19
2017-05-20T02:44:18.484Z,13.27
2017-05-20T02:44:44.589Z,13.25
2017-05-20T02:45:10.682Z,13.27
2017-05-20T02:45:36.778Z,13.27
2017-05-20T02:46:02.887Z,13.3
2017-05-20T02:46:28.985Z,13.31
2017-05-20T02:46:55.075Z,13.27
2017-05-20T02:47:21.179Z,13.3
2017-05-20T02:47:47.335Z,13.25
2017-05-20T02:48:13.449Z,13.25
2017-05-20T02:48:39.610Z,13.23
2017-05-20T02:49:05.716Z,13.19
2017-05-20T02:49:31.853Z,13.27
2017-05-20T02:49:57.954Z,13.28
2017-05-20T02:50:24.088Z,13.25
2017-05-20T02:50:50.206Z,13.23
2017-05-20T02:51:16.302Z,13.23
2017-05-20T02:51:42.408Z,13.15
2017-05-20T02:52:08.500Z,13.09
2017-05-20T02:52:34.591Z,13.15
2017-05-20T02:53:00.778Z,13.22
2017-05-20T02:53:26.875Z,13.15
2017-05-20T02:53:53.022Z,13.11
2017-05-20T02:54:19.198Z,13.11
2017-05-20T02:54:45.344Z,13.18
2017-05-20T02:55:11.476Z,13.18
2017-05-20T02:55:37.570Z,13.2
2017-05-20T02:56:03.661Z,13.16
2017-05-20T02:56:29.768Z,13.09
2017-05-20T02:56:55.862Z,13.05
2017-05-20T02:57:22.001Z,13.05
2017-05-20T02:57:48.136Z,13.03
2017-05-20T02:58:14.261Z,13.03
2017-05-20T02:58:40.379Z,13
2017-05-20T02:59:06.533Z,13.01
2017-05-20T02:59:32.699Z,12.94
2017-05-20T02:59:58.820Z,12.95
2017-05-20T03:00:24.917Z,12.93
2017-05-20T03:00:51.008Z,12.97
2017-05-20T03:01:17.136Z,12.9
2017-05-20T03:01:43.268Z,12.95
2017-05-20T03:02:09.402Z,12.9
2017-05-20T03:02:35.506Z,12.8
2017-05-20T03:03:01.640Z,12.8
2017-05-20T03:03:27.774Z,12.8
2017-05-20T03:03:53.898Z,12.9
2017-05-20T03:04:20.032Z,12.83
2017-05-20T03:04:46.151Z,12.86
2017-05-20T03:05:12.247Z,12.85
2017-05-20T03:05:38.344Z,12.86
2017-05-20T03:06:04.549Z,12.79
2017-05-20T03:06:30.656Z,12.82
2017-05-20T03:06:56.744Z,12.79
2017-05-20T03:07:22.844Z,12.83
2017-05-20T03:07:48.976Z,12.87
2017-05-20T03:08:15.094Z,12.85
2017-05-20T03:08:41.192Z,12.8
2017-05-20T03:09:07.351Z,12.8
2017-05-20T03:09:33.467Z,12.82
2017-05-20T03:09:59.554Z,12.85
2017-05-20T03:10:25.690Z,12.82
2017-05-20T03:10:51.787Z,12.82
2017-05-20T03:11:17.914Z,12.85
2017-05-20T03:11:44.006Z,12.83
2017-05-20T03:12:10.125Z,12.79
2017-05-20T03:12:36.235Z,12.82
2017-05-20T03:13:02.405Z,12.78
2017-05-20T03:13:28.489Z,12.83
2017-05-20T03:13:54.650Z,12.85
2017-05-20T03:14:20.777Z,12.82
2017-05-20T03:14:46.891Z,12.82
2017-05-20T03:15:13.051Z,12.8
2017-05-20T03:15:39.180Z,12.73
2017-05-20T03:16:05.268Z,12.73
2017-05-20T03:16:31.373Z,12.7
2017-05-20T03:16:57.518Z,12.72
2017-05-20T03:17:23.679Z,12.64
2017-05-20T03:17:49.776Z,12.73
2017-05-20T03:18:15.890Z,12.78
2017-05-20T03:18:41.997Z,12.68
2017-05-20T03:19:08.151Z,12.7
2017-05-20T03:19:34.288Z,12.68
2017-05-20T03:20:00.444Z,12.75
2017-05-20T03:20:26.551Z,12.65
2017-05-20T03:20:52.635Z,12.76
2017-05-20T03:21:18.759Z,12.78
2017-05-20T03:21:44.893Z,12.85
2017-05-20T03:22:10.981Z,12.64
2017-05-20T03:22:37.083Z,12.83
2017-05-20T03:23:03.272Z,12.78
2017-05-20T03:23:29.374Z,12.86
2017-05-20T03:23:55.565Z,12.83
2017-05-20T03:24:21.680Z,12.79
2017-05-20T03:24:47.805Z,12.73
2017-05-20T03:25:13.911Z,12.75
2017-05-20T03:25:40.000Z,12.75
2017-05-20T03:26:06.095Z,12.78
2017-05-20T03:26:32.228Z,12.82
2017-05-20T03:26:58.346Z,12.75
2017-05-20T03:27:24.458Z,12.85
2017-05-20T03:27:50.586Z,12.72
2017-05-20T03:28:16.709Z,12.79
2017-05-20T03:28:42.868Z,12.8
2017-05-20T03:29:08.988Z,12.83
2017-05-20T03:29:35.130Z,12.8
2017-05-20T03:30:01.233Z,12.8
2017-05-20T03:30:27.345Z,12.85
2017-05-20T03:30:53.434Z,12.82
2017-05-20T03:31:19.543Z,12.8
2017-05-20T03:31:45.639Z,12.8
2017-05-20T03:32:11.730Z,12.82
2017-05-20T03:32:37.834Z,12.73
2017-05-20T03:33:03.931Z,12.83
2017-05-20T03:33:30.094Z,12.86
2017-05-20T03:33:56.223Z,12.85
2017-05-20T03:34:22.359Z,12.7
2017-05-20T03:34:48.467Z,12.68
2017-05-20T03:35:14.589Z,12.7
2017-05-20T03:35:40.747Z,12.65
2017-05-20T03:36:06.885Z,12.7
2017-05-20T03:36:33.007Z,12.72
2017-05-20T03:36:59.141Z,12.75
2017-05-20T03:37:25.311Z,12.75
2017-05-20T03:37:51.772Z,12.68
2017-05-20T03:38:17.955Z,12.76
2017-05-20T03:38:44.075Z,12.72
2017-05-20T03:39:10.177Z,12.65
2017-05-20T03:39:36.269Z,12.61
2017-05-20T03:40:02.415Z,12.55
2017-05-20T03:40:28.549Z,12.68
2017-05-20T03:40:54.642Z,12.64
2017-05-20T03:41:20.731Z,12.7
2017-05-20T03:41:46.836Z,12.65
2017-05-20T03:42:12.959Z,12.7
2017-05-20T03:42:39.047Z,12.73
2017-05-20T03:43:05.205Z,12.64
2017-05-20T03:43:31.304Z,12.68
2017-05-20T03:43:57.419Z,12.58
2017-05-20T03:44:23.578Z,12.57
2017-05-20T03:44:49.668Z,12.57
2017-05-20T03:45:15.777Z,12.55
2017-05-20T03:45:41.870Z,12.6
2017-05-20T03:46:07.985Z,12.64
2017-05-20T03:46:34.116Z,12.68
2017-05-20T03:47:00.214Z,12.75
2017-05-20T03:47:26.304Z,12.7
2017-05-20T03:47:52.431Z,12.76
2017-05-20T03:48:18.538Z,12.75
2017-05-20T03:48:44.651Z,12.68
2017-05-20T03:49:10.751Z,12.82
2017-05-20T03:49:36.939Z,12.8
2017-05-20T03:50:03.057Z,12.72
2017-05-20T03:50:29.187Z,12.83
2017-05-20T03:50:55.301Z,12.85
2017-05-20T03:51:21.404Z,12.86
2017-05-20T03:51:47.511Z,12.85
2017-05-20T03:52:13.623Z,12.72
2017-05-20T03:52:39.750Z,12.8
2017-05-20T03:53:05.882Z,12.68
2017-05-20T03:53:32.048Z,12.8
2017-05-20T03:53:58.170Z,12.75
2017-05-20T03:54:24.333Z,12.73
2017-05-20T03:54:50.425Z,12.8
2017-05-20T03:55:16.514Z,12.78
2017-05-20T03:55:42.643Z,12.82
2017-05-20T03:56:08.742Z,12.83
2017-05-20T03:56:34.873Z,12.78
2017-05-20T03:57:00.962Z,12.82
2017-05-20T03:57:27.084Z,12.79
2017-05-20T03:57:53.244Z,12.83
2017-05-20T03:58:19.360Z,12.86
2017-05-20T03:58:45.448Z,12.82
2017-05-20T03:59:11.556Z,12.83
2017-05-20T03:59:37.681Z,12.82
2017-05-20T04:00:03.845Z,12.95
2017-05-20T04:00:29.951Z,12.87
2017-05-20T04:00:56.081Z,12.94
2017-05-20T04:01:22.179Z,12.93
2017-05-20T04:01:48.272Z,12.97
2017-05-20T04:02:14.362Z,12.97
2017-05-20T04:02:40.499Z,13.01
2017-05-20T04:03:06.594Z,13.03
2017-05-20T04:03:32.710Z,13.11
2017-05-20T04:03:58.867Z,13.01
2017-05-20T04:04:24.971Z,13
2017-05-20T04:04:51.110Z,13
2017-05-20T04:05:17.237Z,13.05
2017-05-20T04:05:43.342Z,13.11
2017-05-20T04:06:09.483Z,13.12
2017-05-20T04:06:35.608Z,13.11
2017-05-20T04:07:01.699Z,13.09
2017-05-20T04:07:27.805Z,13.09
2017-05-20T04:07:53.902Z,13.12
2017-05-20T04:08:20.067Z,13.04
2017-05-20T04:08:46.224Z,13.11
2017-05-20T04:09:12.359Z,13.16
2017-05-20T04:09:38.497Z,13.09
2017-05-20T04:10:04.626Z,13.13
2017-05-20T04:10:30.732Z,13.09
2017-05-20T04:10:56.821Z,13.13
2017-05-20T04:11:22.953Z,13.13
2017-05-20T04:11:49.055Z,13.19
2017-05-20T04:12:15.148Z,13.25
2017-05-20T04:12:41.254Z,13.19
2017-05-20T04:13:07.419Z,13.27
2017-05-20T04:13:33.517Z,13.31
2017-05-20T04:13:59.681Z,13.3
2017-05-20T04:14:25.825Z,13.31
2017-05-20T04:14:51.948Z,13.37
2017-05-20T04:15:18.083Z,13.33
2017-05-20T04:15:44.177Z,13.41
2017-05-20T04:16:10.267Z,13.31
2017-05-20T04:16:36.400Z,13.37
2017-05-20T04:17:02.522Z,13.28
2017-05-20T04:17:28.631Z,13.19
2017-05-20T04:17:54.765Z,13.2
2017-05-20T04:18:20.896Z,13.23
2017-05-20T04:18:46.984Z,13.25
2017-05-20T04:19:13.138Z,13.3
2017-05-20T04:19:39.297Z,13.25
2017-05-20T04:20:05.433Z,13.3
2017-05-20T04:20:31.533Z,13.35
2017-05-20T04:20:57.637Z,13.33
2017-05-20T04:21:23.781Z,13.35
2017-05-20T04:21:49.903Z,13.31
2017-05-20T04:22:16.009Z,13.41
2017-05-20T04:22:42.102Z,13.42
2017-05-20T04:23:08.217Z,13.27
2017-05-20T04:23:34.352Z,13.23
2017-05-20T04:24:00.502Z,13.23
2017-05-20T04:24:26.638Z,13.3
2017-05-20T04:24:52.727Z,13.27
2017-05-20T04:25:18.849Z,13.39
2017-05-20T04:25:44.982Z,13.37
2017-05-20T04:26:11.101Z,13.41
2017-05-20T04:26:37.191Z,13.41
2017-05-20T04:27:03.327Z,13.35
2017-05-20T04:27:29.426Z,13.33
2017-05-20T04:27:55.542Z,13.44
2017-05-20T04:28:21.672Z,13.33
2017-05-20T04:28:47.774Z,13.41
2017-05-20T04:29:13.925Z,13.35
2017-05-20T04:29:40.042Z,13.38
2017-05-20T04:30:06.158Z,13.42
2017-05-20T04:30:32.264Z,13.47
2017-05-20T04:30:58.360Z,13.54
2017-05-20T04:31:24.450Z,13.38
2017-05-20T04:31:50.555Z,13.5
2017-05-20T04:32:16.653Z,13.47
2017-05-20T04:32:42.770Z,13.38
2017-05-20T04:33:08.898Z,13.42
2017-05-20T04:33:35.056Z,13.39
2017-05-20T04:34:01.216Z,13.35
2017-05-20T04:34:27.370Z,13.38
2017-05-20T04:34:53.492Z,13.39
2017-05-20T04:35:19.650Z,13.37
2017-05-20T04:35:45.750Z,13.37
2017-05-20T04:36:11.838Z,13.25
2017-05-20T04:36:37.940Z,13.23
2017-05-20T04:37:04.046Z,13.12
2017-05-20T04:37:30.156Z,13.23
2017-05-20T04:37:56.309Z,13.27
2017-05-20T04:38:22.498Z,13.33
2017-05-20T04:38:48.613Z,13.33
2017-05-20T04:39:14.710Z,13.35
2017-05-20T04:39:40.843Z,13.39
2017-05-20T04:40:06.961Z,13.44
2017-05-20T04:40:33.066Z,13.41
2017-05-20T04:40:59.176Z,13.37
2017-05-20T04:41:25.275Z,13.31
2017-05-20T04:41:51.404Z,13.19
2017-05-20T04:42:17.492Z,13.22
2017-05-20T04:42:43.588Z,13.28
2017-05-20T04:43:09.724Z,13.3
2017-05-20T04:43:35.874Z,13.28
2017-05-20T04:44:01.964Z,13.23
2017-05-20T04:44:28.130Z,13.23
2017-05-20T04:44:54.228Z,13.3
2017-05-20T04:45:20.338Z,13.23
2017-05-20T04:45:46.444Z,13.18
2017-05-20T04:46:12.537Z,13.37
2017-05-20T04:46:38.669Z,13.25
2017-05-20T04:47:04.788Z,13.2
2017-05-20T04:47:30.927Z,13.25
2017-05-20T04:47:57.062Z,13.25
2017-05-20T04:48:23.213Z,13.28
2017-05-20T04:48:49.351Z,13.33
2017-05-20T04:49:15.456Z,13.38
2017-05-20T04:49:41.611Z,13.42
2017-05-20T04:50:07.749Z,13.46
2017-05-20T04:50:33.881Z,13.31
2017-05-20T04:50:59.983Z,13.28
2017-05-20T04:51:26.101Z,13.23
2017-05-20T04:51:52.227Z,13.31
2017-05-20T04:52:18.341Z,13.28
2017-05-20T04:52:44.475Z,13.41
2017-05-20T04:53:10.630Z,13.38
2017-05-20T04:53:36.744Z,13.38
2017-05-20T04:54:02.875Z,13.44
2017-05-20T04:54:29.006Z,13.39
2017-05-20T04:54:55.117Z,13.42
2017-05-20T04:55:21.240Z,13.42
2017-05-20T04:55:47.373Z,13.5
2017-05-20T04:56:13.488Z,13.44
2017-05-20T04:56:39.634Z,13.46
2017-05-20T04:57:05.732Z,13.39
2017-05-20T04:57:31.886Z,13.39
2017-05-20T04:57:58.022Z,13.41
2017-05-20T04:58:24.160Z,13.42
2017-05-20T04:58:50.290Z,13.46
2017-05-20T04:59:16.425Z,13.39
2017-05-20T04:59:42.540Z,13.35
2017-05-20T05:00:08.636Z,13.35
2017-05-20T05:00:34.741Z,13.39
2017-05-20T05:01:00.835Z,13.42
2017-05-20T05:01:26.948Z,13.44
2017-05-20T05:01:53.056Z,13.42
2017-05-20T05:02:19.180Z,13.42
2017-05-20T05:02:45.270Z,13.44
2017-05-20T05:03:11.405Z,13.42
2017-05-20T05:03:37.558Z,13.3
2017-05-20T05:04:03.696Z,13.31
2017-05-20T05:04:29.861Z,13.31
2017-05-20T05:04:56.049Z,13.46
2017-05-20T05:05:22.160Z,13.44
2017-05-20T05:05:48.260Z,13.41
2017-05-20T05:06:14.366Z,13.44
2017-05-20T05:06:40.482Z,13.39
2017-05-20T05:07:06.578Z,13.41
2017-05-20T05:07:32.685Z,13.54
2017-05-20T05:07:58.806Z,13.52
2017-05-20T05:08:24.941Z,13.54
2017-05-20T05:08:51.031Z,13.52
2017-05-20T05:09:17.207Z,13.54
2017-05-20T05:09:43.367Z,13.5
2017-05-20T05:10:09.456Z,13.47
2017-05-20T05:10:35.580Z,13.53
2017-05-20T05:11:01.688Z,13.53
2017-05-20T05:11:27.785Z,13.59
2017-05-20T05:11:53.877Z,13.53
2017-05-20T05:12:20.012Z,13.54
2017-05-20T05:12:46.106Z,13.47
2017-05-20T05:13:12.224Z,13.39
2017-05-20T05:13:38.329Z,13.44
2017-05-20T05:14:04.502Z,13.38
2017-05-20T05:14:30.661Z,13.41
2017-05-20T05:14:56.760Z,13.42
2017-05-20T05:15:22.891Z,13.39
2017-05-20T05:15:49.029Z,13.49
2017-05-20T05:16:15.125Z,13.42
2017-05-20T05:16:41.233Z,13.42
2017-05-20T05:17:07.420Z,13.5
2017-05-20T05:17:33.550Z,13.39
2017-05-20T05:17:59.687Z,13.49
2017-05-20T05:18:25.868Z,13.5
2017-05-20T05:18:52.002Z,13.41
2017-05-20T05:19:18.121Z,13.41
2017-05-20T05:19:44.269Z,13.41
2017-05-20T05:20:10.359Z,13.38
2017-05-20T05:20:36.491Z,13.53
2017-05-20T05:21:02.646Z,13.52
2017-05-20T05:21:28.783Z,13.53
2017-05-20T05:21:54.941Z,13.49
2017-05-20T05:22:21.045Z,13.46
2017-05-20T05:22:47.184Z,13.46
2017-05-20T05:23:13.312Z,13.41
2017-05-20T05:23:39.506Z,13.41
2017-05-20T05:24:05.641Z,13.47
2017-05-20T05:24:31.737Z,13.44
2017-05-20T05:24:57.875Z,13.39
2017-05-20T05:25:23.989Z,13.41
2017-05-20T05:25:50.072Z,13.41
2017-05-20T05:26:16.181Z,13.3
2017-05-20T05:26:42.277Z,13.38
2017-05-20T05:27:08.393Z,13.39
2017-05-20T05:27:34.523Z,13.52
2017-05-20T05:28:00.622Z,13.46
2017-05-20T05:28:26.712Z,13.47
2017-05-20T05:28:52.896Z,13.53
2017-05-20T05:29:19.030Z,13.47
2017-05-20T05:29:45.142Z,13.5
2017-05-20T05:30:11.240Z,13.54
2017-05-20T05:30:37.358Z,13.52
2017-05-20T05:31:03.487Z,13.5
2017-05-20T05:31:29.620Z,13.57
2017-05-20T05:31:55.737Z,13.57
2017-05-20T05:32:21.841Z,13.68
2017-05-20T05:32:48.001Z,13.71
2017-05-20T05:33:14.140Z,13.65
2017-05-20T05:33:40.265Z,13.56
2017-05-20T05:34:06.370Z,13.75
2017-05-20T05:34:32.510Z,13.67
2017-05-20T05:34:58.630Z,13.77
2017-05-20T05:35:24.762Z,13.86
2017-05-20T05:35:50.880Z,13.86
2017-05-20T05:36:17.012Z,13.97
2017-05-20T05:36:43.100Z,13.92
2017-05-20T05:37:09.226Z,13.9
2017-05-20T05:37:35.365Z,13.85
2017-05-20T05:38:01.474Z,13.79